Aérodrome :
LOGIN :

S'inscrire | Disclaimer

   EN    FR    IT 

 










Légende :    VFR   VFR Marginal   IFR   IFR Intensif   IFR Très Intensif
Visi : 
Plafond : 
>= 8 km
>= 3000ft
5 à 8 km
1000 à 3000 ft
1500m à 5 km
500 à 1000 ft
800 à 1500m
200 à 500 ft
< 800m
< 200 ft
Symboles :   Orages  Brouillard  Fortes neiges  Fortes précipitations  Vent > 20 kt
SIGMETs :   Divers  Orages  Givrage  Turbulence  Onde Orograph.  Cendres Volcan.






- Altitude de l'aérodrome : 2026 ft
- Code IATA : TOJ


LETO - Madrid Torrejon

DERNIER METAR :
  • 272300Z 20009KT 9999 SCT012 08/07 Q1022 NOSIG

METARs EXPIRÉS :
  • 272200Z 20007KT 9999 SCT018 08/07 Q1022 NOSIG
  • 272100Z 21010KT 9999 BKN018 BKN025 08/06 Q1022 NOSIG

TAF TAF LETO
Valide du 28 à 00h jusqu'au 29 à 00h UTC


272300Z 2800/2824 23010KT 9999 SCT030 TX13/2815Z TN05/2806Z
TEMPO 2800/2812 BKN009
PROB40
TEMPO 2800/2811 4000 BR BKN004
PROB40
TEMPO 2812/2819 23015G25KT



MET'MAP, la Météo Aéronautique d'un coup d'oeil ! - Copyright ORBIFLY Décembre 2007 - Disclaimer

ORBIFLY MET'MAP TEAM :

Programmation & Développement : Alexandra Zaïnal
Sur une idée originale de : Baudouin d'Aumeries
Assistance à la programmation : Marc-Olivier Méhu
Soutien technique & logistique : Manuel Goepfert

Contact : metmap@orbifly.com




SOURCES & CREDITS :

   NOAA